createdAt,value
2019-02-10T00:00:49.577Z,1.50
2019-02-10T00:03:17.297Z,1.40
2019-02-10T00:05:49.804Z,1.33
2019-02-10T00:08:19.423Z,1.43
2019-02-10T00:10:47.853Z,1.67
2019-02-10T00:13:27.628Z,1.30
2019-02-10T00:15:59.360Z,1.37
2019-02-10T00:18:27.768Z,1.30
2019-02-10T00:20:56.777Z,1.10
2019-02-10T00:23:32.181Z,1.30
2019-02-10T00:26:01.645Z,1.20
2019-02-10T00:28:30.061Z,1.57
2019-02-10T00:30:58.468Z,1.47
2019-02-10T00:33:29.461Z,1.20
2019-02-10T00:35:57.866Z,1.57
2019-02-10T00:38:27.108Z,1.20
2019-02-10T00:40:55.533Z,1.60
2019-02-10T00:43:24.105Z,1.47
2019-02-10T00:45:52.519Z,1.10
2019-02-10T00:48:20.970Z,1.27
2019-02-10T00:50:49.953Z,1.37
2019-02-10T00:53:18.369Z,1.37
2019-02-10T00:55:47.838Z,1.13
2019-02-10T00:58:16.557Z,1.20
2019-02-10T01:00:44.968Z,1.20
2019-02-10T01:03:13.380Z,1.77
2019-02-10T01:05:43.449Z,1.50
2019-02-10T01:08:13.237Z,1.10
2019-02-10T01:10:41.673Z,1.30
2019-02-10T01:13:11.261Z,1.40
2019-02-10T01:15:40.367Z,1.00
2019-02-10T01:18:11.720Z,1.33
2019-02-10T01:20:40.712Z,1.17
2019-02-10T01:23:09.185Z,1.33
2019-02-10T01:25:37.807Z,1.20
2019-02-10T01:28:06.241Z,1.20
2019-02-10T01:30:35.924Z,1.50
2019-02-10T01:33:05.152Z,1.20
2019-02-10T01:35:34.432Z,1.40
2019-02-10T01:38:02.869Z,1.40
2019-02-10T01:40:31.988Z,1.40
2019-02-10T01:43:01.254Z,0.93
2019-02-10T01:45:29.676Z,1.20
2019-02-10T01:47:58.445Z,1.23
2019-02-10T01:50:26.881Z,1.20
2019-02-10T01:52:56.549Z,1.03
2019-02-10T01:55:24.973Z,1.27
2019-02-10T01:57:53.373Z,1.27
2019-02-10T02:00:21.889Z,1.30
2019-02-10T02:02:52.016Z,1.40
2019-02-10T02:05:20.734Z,1.10
2019-02-10T02:07:50.532Z,1.70
2019-02-10T02:10:18.968Z,1.40
2019-02-10T02:12:47.651Z,1.20
2019-02-10T02:15:16.604Z,1.30
2019-02-10T02:17:45.008Z,1.20
2019-02-10T02:20:14.792Z,1.30
2019-02-10T02:22:43.229Z,1.03
2019-02-10T02:25:14.129Z,1.13
2019-02-10T02:27:42.573Z,1.00
2019-02-10T02:30:13.921Z,1.13
2019-02-10T02:32:42.305Z,1.10
2019-02-10T02:35:12.088Z,1.47
2019-02-10T02:37:42.146Z,1.20
2019-02-10T02:40:11.293Z,1.10
2019-02-10T02:42:41.069Z,1.53
2019-02-10T02:45:12.969Z,1.20
2019-02-10T02:47:41.407Z,1.30
2019-02-10T02:50:11.053Z,1.30
2019-02-10T02:52:39.503Z,1.23
2019-02-10T02:55:12.730Z,1.20
2019-02-10T02:57:43.775Z,1.20
2019-02-10T03:00:13.802Z,1.10
2019-02-10T03:02:42.410Z,1.20
2019-02-10T03:05:12.600Z,1.40
2019-02-10T03:07:42.069Z,1.20
2019-02-10T03:10:10.511Z,1.33
2019-02-10T03:12:39.221Z,1.67
2019-02-10T03:15:08.892Z,1.40
2019-02-10T03:17:37.320Z,1.30
2019-02-10T03:20:07.190Z,1.30
2019-02-10T03:22:35.598Z,1.10
2019-02-10T03:25:05.042Z,1.03
2019-02-10T03:27:35.131Z,1.10
2019-02-10T03:30:04.473Z,1.20
2019-02-10T03:32:32.904Z,1.20
2019-02-10T03:35:01.323Z,0.90
2019-02-10T03:37:29.757Z,1.30
2019-02-10T03:40:00.351Z,1.43
2019-02-10T03:42:28.773Z,1.10
2019-02-10T03:44:57.194Z,1.27
2019-02-10T03:47:26.747Z,1.43
2019-02-10T03:49:55.717Z,1.00
2019-02-10T03:52:24.151Z,1.00
2019-02-10T03:54:52.553Z,1.10
2019-02-10T03:57:22.263Z,1.13
2019-02-10T03:59:51.193Z,1.07
2019-02-10T04:02:19.597Z,1.47
2019-02-10T04:04:48.036Z,1.00
2019-02-10T04:07:17.018Z,1.47
2019-02-10T04:09:45.436Z,1.00
2019-02-10T04:12:14.112Z,1.00
2019-02-10T04:14:42.552Z,1.20
2019-02-10T04:17:11.968Z,1.00
2019-02-10T04:19:40.419Z,0.90
2019-02-10T04:22:09.349Z,1.13
2019-02-10T04:24:38.192Z,1.20
2019-02-10T04:27:07.630Z,0.80
2019-02-10T04:29:36.065Z,1.17
2019-02-10T04:32:05.021Z,1.07
2019-02-10T04:34:33.472Z,1.53
2019-02-10T04:37:01.880Z,1.20
2019-02-10T04:39:30.596Z,1.10
2019-02-10T04:41:59.114Z,0.97
2019-02-10T04:44:27.530Z,1.20
2019-02-10T04:46:55.960Z,1.10
2019-02-10T04:49:24.488Z,1.20
2019-02-10T04:51:54.993Z,1.20
2019-02-10T04:54:23.677Z,1.10
2019-02-10T04:56:52.411Z,1.07
2019-02-10T04:59:20.819Z,1.00
2019-02-10T05:01:49.236Z,1.20
2019-02-10T05:04:17.653Z,1.20
2019-02-10T05:06:46.070Z,1.13
2019-02-10T05:09:14.517Z,1.40
2019-02-10T05:11:42.925Z,0.97
2019-02-10T05:14:11.365Z,1.17
2019-02-10T05:16:39.784Z,0.80
2019-02-10T05:19:08.219Z,1.23
2019-02-10T05:21:36.637Z,0.90
2019-02-10T05:24:05.059Z,1.23
2019-02-10T05:26:33.708Z,0.80
2019-02-10T05:29:02.708Z,1.27
2019-02-10T05:31:31.121Z,0.80
2019-02-10T05:34:00.995Z,1.13
2019-02-10T05:36:29.708Z,0.77
2019-02-10T05:38:58.369Z,0.73
2019-02-10T05:41:26.792Z,0.80
2019-02-10T05:43:57.191Z,0.80
2019-02-10T05:46:25.627Z,0.90
2019-02-10T05:48:54.037Z,0.90
2019-02-10T05:51:22.478Z,1.10
2019-02-10T05:53:51.170Z,1.07
2019-02-10T05:56:19.620Z,1.00
2019-02-10T05:58:49.655Z,1.00
2019-02-10T06:01:54.712Z,1.10
2019-02-10T06:04:23.140Z,0.90
2019-02-10T06:06:52.508Z,1.10
2019-02-10T06:09:20.916Z,0.80
2019-02-10T06:11:49.465Z,1.10
2019-02-10T06:14:18.025Z,0.80
2019-02-10T06:16:48.089Z,1.00
2019-02-10T06:19:16.527Z,1.00
2019-02-10T06:21:44.954Z,0.90
2019-02-10T06:24:13.400Z,0.93
2019-02-10T06:26:43.429Z,0.93
2019-02-10T06:29:11.869Z,1.00
2019-02-10T06:31:40.289Z,0.93
2019-02-10T06:34:09.673Z,1.00
2019-02-10T06:36:38.644Z,1.03
2019-02-10T06:39:07.067Z,0.80
2019-02-10T06:41:35.489Z,0.80
2019-02-10T06:44:03.902Z,1.07
2019-02-10T06:46:32.337Z,1.23
2019-02-10T06:49:00.747Z,1.27
2019-02-10T06:51:30.212Z,1.13
2019-02-10T06:53:58.762Z,1.00
2019-02-10T06:56:27.181Z,1.30
2019-02-10T06:58:55.598Z,1.00
2019-02-10T07:01:25.699Z,0.77
2019-02-10T07:03:57.488Z,1.20
2019-02-10T07:06:28.068Z,1.10
2019-02-10T07:08:56.448Z,0.70
2019-02-10T07:11:24.885Z,1.00
2019-02-10T07:13:55.529Z,1.10
2019-02-10T07:16:32.447Z,1.20
2019-02-10T07:19:37.062Z,0.87
2019-02-10T07:22:29.066Z,0.93
2019-02-10T07:25:13.666Z,1.17
2019-02-10T07:27:48.227Z,0.90
2019-02-10T07:30:20.160Z,0.90
2019-02-10T07:33:06.193Z,0.90
2019-02-10T07:35:58.752Z,0.80
2019-02-10T07:38:50.066Z,1.10
2019-02-10T07:41:37.006Z,1.00
2019-02-10T07:44:33.347Z,1.10
2019-02-10T07:47:23.006Z,1.00
2019-02-10T07:50:00.271Z,0.80
2019-02-10T07:52:40.505Z,1.10
2019-02-10T07:55:12.201Z,1.10
2019-02-10T07:58:02.589Z,0.90
2019-02-10T08:00:39.973Z,0.80
2019-02-10T08:03:11.636Z,0.73
2019-02-10T08:05:43.333Z,0.83
2019-02-10T08:08:35.960Z,0.80
2019-02-10T08:11:10.190Z,1.00
2019-02-10T08:13:47.574Z,0.87
2019-02-10T08:16:43.610Z,0.70
2019-02-10T08:19:46.400Z,1.00
2019-02-10T08:22:18.100Z,0.90
2019-02-10T08:25:00.262Z,1.20
2019-02-10T08:27:45.130Z,1.10
2019-02-10T08:30:18.713Z,1.20
2019-02-10T08:33:04.899Z,0.93
2019-02-10T08:35:36.846Z,0.90
2019-02-10T08:38:12.074Z,1.07
2019-02-10T08:40:50.960Z,1.10
2019-02-10T08:43:35.311Z,0.93
2019-02-10T08:46:24.872Z,0.80
2019-02-10T08:49:14.217Z,0.90
2019-02-10T08:51:57.679Z,0.93
2019-02-10T08:54:26.263Z,0.83
2019-02-10T08:56:55.261Z,1.03
2019-02-10T08:59:26.455Z,1.10
2019-02-10T09:01:54.876Z,0.90
2019-02-10T09:04:23.300Z,0.80
2019-02-10T09:06:53.857Z,0.87
2019-02-10T09:09:22.756Z,1.00
2019-02-10T09:11:52.228Z,0.80
2019-02-10T09:14:20.667Z,1.10
2019-02-10T09:16:49.062Z,0.93
2019-02-10T09:19:17.498Z,0.73
2019-02-10T09:21:45.929Z,0.90
2019-02-10T09:24:14.357Z,1.10
2019-02-10T09:26:42.832Z,0.80
2019-02-10T09:29:11.277Z,1.07
2019-02-10T09:31:39.948Z,0.93
2019-02-10T09:34:09.189Z,0.93
2019-02-10T09:36:38.401Z,0.90
2019-02-10T09:39:11.020Z,0.63
2019-02-10T09:41:36.961Z,1.00
2019-02-10T09:44:06.780Z,0.90
2019-02-10T09:46:38.903Z,0.90
2019-02-10T09:49:08.968Z,0.80
2019-02-10T09:51:37.372Z,0.73
2019-02-10T09:57:09.880Z,0.93
2019-02-10T09:59:45.236Z,1.10
2019-02-10T10:02:09.929Z,1.03
2019-02-10T10:04:39.475Z,0.70
2019-02-10T10:07:07.942Z,1.13
2019-02-10T10:09:37.579Z,0.80
2019-02-10T10:12:06.084Z,1.03
2019-02-10T10:14:34.516Z,1.00
2019-02-10T10:17:02.948Z,1.17
2019-02-10T10:19:31.356Z,1.17
2019-02-10T10:21:59.791Z,1.10
2019-02-10T10:24:28.211Z,1.33
2019-02-10T10:26:56.649Z,1.37
2019-02-10T10:29:25.064Z,1.00
2019-02-10T10:31:53.499Z,0.90
2019-02-10T10:34:21.920Z,0.80
2019-02-10T10:36:50.364Z,1.00
2019-02-10T10:39:18.782Z,0.90
2019-02-10T10:41:47.207Z,1.00
2019-02-10T10:44:15.664Z,1.10
2019-02-10T10:46:44.072Z,1.00
2019-02-10T10:49:12.500Z,1.23
2019-02-10T10:51:40.942Z,1.03
2019-02-10T10:54:10.999Z,0.87
2019-02-10T10:56:41.031Z,1.10
2019-02-10T10:59:09.472Z,0.83
2019-02-10T11:01:37.881Z,0.90
2019-02-10T11:04:06.311Z,0.80
2019-02-10T11:06:34.720Z,0.90
2019-02-10T11:09:05.613Z,1.07
2019-02-10T11:11:34.522Z,0.83
2019-02-10T11:14:02.951Z,1.00
2019-02-10T11:16:33.220Z,0.97
2019-02-10T11:19:01.666Z,0.90
2019-02-10T11:21:30.372Z,0.90
2019-02-10T11:23:59.075Z,1.00
2019-02-10T11:26:27.777Z,0.97
2019-02-10T11:28:56.529Z,0.90
2019-02-10T11:31:24.937Z,1.37
2019-02-10T11:33:53.356Z,1.00
2019-02-10T11:36:22.592Z,0.90
2019-02-10T11:38:50.996Z,1.00
2019-02-10T11:41:20.014Z,0.80
2019-02-10T11:43:49.235Z,0.90
2019-02-10T11:46:24.696Z,1.07
2019-02-10T11:48:54.119Z,1.27
2019-02-10T11:51:22.560Z,1.27
2019-02-10T11:53:54.237Z,0.90
2019-02-10T11:56:22.670Z,1.00
2019-02-10T11:58:52.718Z,1.00
2019-02-10T12:01:21.346Z,1.20
2019-02-10T12:03:50.040Z,1.20
2019-02-10T12:06:20.601Z,0.93
2019-02-10T12:08:51.585Z,1.40
2019-02-10T12:11:20.269Z,1.00
2019-02-10T12:13:50.295Z,1.00
2019-02-10T12:16:18.916Z,1.33
2019-02-10T12:18:49.329Z,1.13
2019-02-10T12:21:18.949Z,0.90
2019-02-10T12:23:53.967Z,1.13
2019-02-10T12:26:22.961Z,0.93
2019-02-10T12:28:52.997Z,1.10
2019-02-10T12:31:25.165Z,1.00
2019-02-10T12:34:02.236Z,1.47
2019-02-10T12:36:34.657Z,1.20
2019-02-10T12:39:06.465Z,1.17
2019-02-10T12:41:36.094Z,1.00
2019-02-10T12:44:05.023Z,1.00
2019-02-10T12:46:33.713Z,1.00
2019-02-10T12:49:03.520Z,1.07
2019-02-10T12:51:31.937Z,1.20
2019-02-10T12:54:00.933Z,1.60
2019-02-10T12:56:47.424Z,1.73
2019-02-10T12:59:17.955Z,1.30
2019-02-10T13:01:56.099Z,2.77
2019-02-10T13:04:26.856Z,15.33
2019-02-10T13:06:59.793Z,15.17
2019-02-10T13:09:29.497Z,10.30
2019-02-10T13:11:58.624Z,8.37
2019-02-10T13:14:28.635Z,5.80
2019-02-10T13:16:57.420Z,5.00
2019-02-10T13:19:25.870Z,3.80
2019-02-10T13:21:54.276Z,3.93
2019-02-10T13:24:22.708Z,3.33
2019-02-10T13:26:51.691Z,3.03
2019-02-10T13:29:20.134Z,2.50
2019-02-10T13:31:50.171Z,3.07
2019-02-10T13:34:19.950Z,2.13
2019-02-10T13:36:57.019Z,2.27
2019-02-10T13:39:27.397Z,2.37
2019-02-10T13:41:57.889Z,2.30
2019-02-10T13:44:26.761Z,2.00
2019-02-10T13:46:58.279Z,2.17
2019-02-10T13:49:28.289Z,2.50
2019-02-10T13:51:58.358Z,1.93
2019-02-10T13:54:28.414Z,1.93
2019-02-10T13:57:01.103Z,1.80
2019-02-10T13:59:29.504Z,1.93
2019-02-10T14:01:58.515Z,1.77
2019-02-10T14:04:28.012Z,1.40
2019-02-10T14:06:57.578Z,1.97
2019-02-10T14:09:25.989Z,1.87
2019-02-10T14:11:54.477Z,1.50
2019-02-10T14:14:24.729Z,1.50
2019-02-10T14:16:53.165Z,1.80
2019-02-10T14:19:21.606Z,1.50
2019-02-10T14:21:50.005Z,1.67
2019-02-10T14:24:21.530Z,1.97
2019-02-10T14:26:49.947Z,1.60
2019-02-10T14:29:18.954Z,1.97
2019-02-10T14:31:47.357Z,1.80
2019-02-10T14:34:16.357Z,1.90
2019-02-10T14:36:49.634Z,1.67
2019-02-10T14:39:20.017Z,1.70
2019-02-10T14:41:51.851Z,1.60
2019-02-10T14:44:20.284Z,1.57
2019-02-10T14:46:50.686Z,1.80
2019-02-10T14:49:19.352Z,1.50
2019-02-10T14:51:49.420Z,1.70
2019-02-10T14:54:17.828Z,1.30
2019-02-10T14:56:47.629Z,1.60
2019-02-10T14:59:18.367Z,1.47
2019-02-10T15:01:47.833Z,1.33
2019-02-10T15:04:17.057Z,1.20
2019-02-10T15:06:45.492Z,1.20
2019-02-10T15:09:13.960Z,1.27
2019-02-10T15:11:42.969Z,1.53
2019-02-10T15:14:11.392Z,1.50
2019-02-10T15:16:40.902Z,1.17
2019-02-10T15:19:09.313Z,1.40
2019-02-10T15:21:37.720Z,1.20
2019-02-10T15:24:06.724Z,1.40
2019-02-10T15:26:36.229Z,1.10
2019-02-10T15:29:04.659Z,1.43
2019-02-10T15:31:34.779Z,1.00
2019-02-10T15:34:03.316Z,1.10
2019-02-10T15:36:38.144Z,1.13
2019-02-10T15:39:08.243Z,1.30
2019-02-10T15:41:38.276Z,1.30
2019-02-10T15:44:06.713Z,1.00
2019-02-10T15:46:35.126Z,1.50
2019-02-10T15:49:03.631Z,1.20
2019-02-10T15:51:37.230Z,1.20
2019-02-10T15:54:05.598Z,1.43
2019-02-10T15:56:35.119Z,1.23
2019-02-10T15:59:04.264Z,1.00
2019-02-10T16:01:35.528Z,0.90
2019-02-10T16:04:05.612Z,1.50
2019-02-10T16:06:34.024Z,1.43
2019-02-10T16:09:02.450Z,1.13
2019-02-10T16:11:32.379Z,1.40
2019-02-10T16:14:02.260Z,1.30
2019-02-10T16:16:30.704Z,0.97
2019-02-10T16:18:59.253Z,1.20
2019-02-10T16:21:27.694Z,1.00
2019-02-10T16:23:56.106Z,0.80
2019-02-10T16:26:24.540Z,1.10
2019-02-10T16:28:52.945Z,1.40
2019-02-10T16:31:21.373Z,1.10
2019-02-10T16:33:49.810Z,1.10
2019-02-10T16:36:18.208Z,1.27
2019-02-10T16:38:46.641Z,1.10
2019-02-10T16:41:15.074Z,1.13
2019-02-10T16:43:43.508Z,0.90
2019-02-10T16:46:11.936Z,1.00
2019-02-10T16:48:40.384Z,1.00
2019-02-10T16:51:08.799Z,1.20
2019-02-10T16:53:37.249Z,1.13
2019-02-10T16:56:05.659Z,0.90
2019-02-10T16:58:34.117Z,1.03
2019-02-10T17:01:02.534Z,1.20
2019-02-10T17:03:30.968Z,0.80
2019-02-10T17:06:01.084Z,1.13
2019-02-10T17:08:38.492Z,1.10
2019-02-10T17:11:14.100Z,1.00
2019-02-10T17:13:41.360Z,0.80
2019-02-10T17:16:10.045Z,1.17
2019-02-10T17:18:40.443Z,3.50
2019-02-10T17:21:09.637Z,1.80
2019-02-10T17:23:39.626Z,1.67
2019-02-10T17:26:09.772Z,1.50
2019-02-10T17:28:38.218Z,1.17
2019-02-10T17:31:07.216Z,1.57
2019-02-10T17:33:38.854Z,1.23
2019-02-10T17:36:12.034Z,1.70
2019-02-10T17:38:43.111Z,1.20
2019-02-10T17:43:43.515Z,1.23
2019-02-10T17:46:13.878Z,1.13
2019-02-10T17:48:45.880Z,0.90
2019-02-10T17:51:17.476Z,1.00
2019-02-10T17:53:55.529Z,0.93
2019-02-10T17:56:25.742Z,1.00
2019-02-10T17:58:56.725Z,1.00
2019-02-10T18:01:26.572Z,1.13
2019-02-10T18:03:57.443Z,1.00
2019-02-10T18:06:28.925Z,1.00
2019-02-10T18:09:10.885Z,0.90
2019-02-10T18:11:47.230Z,1.17
2019-02-10T18:14:24.634Z,0.90
2019-02-10T18:17:10.421Z,1.10
2019-02-10T18:19:42.954Z,0.83
2019-02-10T18:22:27.560Z,1.03
2019-02-10T18:24:59.806Z,0.90
2019-02-10T18:27:30.904Z,0.70
2019-02-10T18:30:04.770Z,1.17
2019-02-10T18:32:39.888Z,1.40
2019-02-10T18:35:10.984Z,1.23
2019-02-10T18:37:48.095Z,1.07
2019-02-10T18:40:33.346Z,0.60
2019-02-10T18:43:08.033Z,1.20
2019-02-10T18:48:29.204Z,0.93
2019-02-10T18:50:59.579Z,0.90
2019-02-10T18:53:56.443Z,1.00
2019-02-10T18:56:28.401Z,0.90
2019-02-10T18:59:14.183Z,0.87
2019-02-10T19:02:10.086Z,0.90
2019-02-10T19:05:03.818Z,0.70
2019-02-10T19:07:34.764Z,0.90
2019-02-10T19:10:07.471Z,0.77
2019-02-10T19:12:57.546Z,0.73
2019-02-10T19:15:31.532Z,0.70
2019-02-10T19:18:04.393Z,0.80
2019-02-10T19:20:51.033Z,0.93
2019-02-10T19:23:36.207Z,1.00
2019-02-10T19:26:28.749Z,0.77
2019-02-10T19:29:19.819Z,0.93
2019-02-10T19:32:14.337Z,0.83
2019-02-10T19:34:53.967Z,0.50
2019-02-10T19:40:25.592Z,0.70
2019-02-10T19:43:19.185Z,0.93
2019-02-10T19:45:51.880Z,0.70
2019-02-10T19:48:51.626Z,0.70
2019-02-10T19:51:49.469Z,0.80
2019-02-10T19:54:33.989Z,0.70
2019-02-10T19:57:16.220Z,0.77
2019-02-10T20:00:03.637Z,0.50
2019-02-10T20:02:34.001Z,0.90
2019-02-10T20:05:07.149Z,0.70
2019-02-10T20:07:43.750Z,0.80
2019-02-10T20:10:31.687Z,0.73
2019-02-10T20:13:08.456Z,1.00
2019-02-10T20:18:39.853Z,0.80
2019-02-10T20:21:27.934Z,0.63
2019-02-10T20:24:09.172Z,1.00
2019-02-10T20:26:54.634Z,0.70
2019-02-10T20:29:24.712Z,0.80
2019-02-10T20:32:04.770Z,0.80
2019-02-10T20:34:51.290Z,0.80
2019-02-10T20:37:42.536Z,0.53
2019-02-10T20:40:18.263Z,0.70
2019-02-10T20:42:48.357Z,0.70
2019-02-10T20:45:43.196Z,0.60
2019-02-10T20:48:20.681Z,0.77
2019-02-10T20:51:02.252Z,0.63
2019-02-10T20:53:40.020Z,0.60
2019-02-10T20:56:16.750Z,0.77
2019-02-10T20:58:52.129Z,1.00
2019-02-10T21:01:22.201Z,0.90
2019-02-10T21:03:58.618Z,0.80
2019-02-10T21:11:59.860Z,0.80
2019-02-10T21:17:50.576Z,0.90
2019-02-10T21:20:21.457Z,0.60
2019-02-10T21:23:09.088Z,0.80
2019-02-10T21:25:39.143Z,0.60
2019-02-10T21:28:22.521Z,0.93
2019-02-10T21:31:00.176Z,0.60
2019-02-10T21:33:48.873Z,0.70
2019-02-10T21:36:35.151Z,0.70
2019-02-10T21:39:08.862Z,0.50
2019-02-10T21:41:41.807Z,0.77
2019-02-10T21:47:22.550Z,0.77
2019-02-10T21:49:52.856Z,0.80
2019-02-10T21:52:23.910Z,0.80
2019-02-10T21:55:10.422Z,0.80
2019-02-10T21:57:41.428Z,0.60
2019-02-10T22:00:14.430Z,0.60
2019-02-10T22:03:03.546Z,0.40
2019-02-10T22:05:33.922Z,0.70
2019-02-10T22:08:16.844Z,0.53
2019-02-10T22:10:45.866Z,0.50
2019-02-10T22:13:19.985Z,0.80
2019-02-10T22:15:52.543Z,0.60
2019-02-10T22:18:24.005Z,0.60
2019-02-10T22:20:59.653Z,0.50
2019-02-10T22:23:38.957Z,0.70
2019-02-10T22:26:15.146Z,0.60
2019-02-10T22:28:48.793Z,0.70
2019-02-10T22:31:20.292Z,0.50
2019-02-10T22:33:51.607Z,0.60
2019-02-10T22:36:25.423Z,0.50
2019-02-10T22:38:55.178Z,0.80
2019-02-10T22:41:23.584Z,0.57
2019-02-10T22:43:57.047Z,0.40
2019-02-10T22:46:25.453Z,0.67
2019-02-10T22:49:07.836Z,0.50
2019-02-10T22:51:38.432Z,0.60
2019-02-10T22:54:14.945Z,0.80
2019-02-10T22:56:43.345Z,0.70
2019-02-10T22:59:17.226Z,0.60
2019-02-10T23:01:45.644Z,0.50
2019-02-10T23:04:21.578Z,0.70
2019-02-10T23:06:54.556Z,0.37
2019-02-10T23:09:24.944Z,0.30
2019-02-10T23:11:53.368Z,0.50
2019-02-10T23:14:26.105Z,0.53
2019-02-10T23:16:55.113Z,0.50
2019-02-10T23:19:26.573Z,0.40
2019-02-10T23:21:56.629Z,0.70
2019-02-10T23:24:54.677Z,0.60
2019-02-10T23:27:06.855Z,0.50
2019-02-10T23:29:53.910Z,0.50
2019-02-10T23:32:33.185Z,0.40
2019-02-10T23:35:14.990Z,0.47
2019-02-10T23:37:43.418Z,0.70
2019-02-10T23:40:13.092Z,0.50
2019-02-10T23:42:42.791Z,0.60
2019-02-10T23:45:25.668Z,0.60
2019-02-10T23:47:55.603Z,0.50
2019-02-10T23:50:26.691Z,0.60
2019-02-10T23:52:56.281Z,0.70
2019-02-10T23:55:27.486Z,0.63
